Terminal Aerodrome Forecast
Issued by NWS Omaha/Valley, NE

Home | Current Version | Previous Version | Graphics & Text | Print | Product List | Glossary On
Versions: 1 2 3 4 5 6 7 8 9 10 11 12 13 14 15 16 17 18 19 20 21
000
FTUS43 KOAX 180520
TAFOFK
TAF
KOFK 180520Z 1806/1906 35016G24KT P6SM VCSH OVC050
      TEMPO 1806/1808 -SHRA BKN035
     FM181200 33015G23KT P6SM BKN100
     FM181800 32023G32KT P6SM FEW250
     FM190000 32010KT P6SM SKC=

USA.gov is the U.S. government's official web portal to all federal, state and local government web resources and services.